Time;durP1;ratioP1;P1;durP2;ratioP2;P2;SDS_P1;SDS_P2;PMS_P1;PMS_P2;Temp;Humidity;BMP_temperature;BMP_pressure;BME280_temperature;BME280_humidity;BME280_pressure;Samples;Min_cycle;Max_cycle;Signal;HPM_P1;HPM_P2
2023/01/04 00:00:33;;;;;;;8.40;4.80;;;;;;;19.29;56.05;101576.03;5082810;28;20660;-62
2023/01/04 00:02:58;;;;;;;11.17;5.33;;;;;;;19.31;56.04;101575.69;5072417;28;20899;-62
2023/01/04 00:05:24;;;;;;;11.63;5.50;;;;;;;19.30;55.98;101566.25;5071876;28;20187;-62
2023/01/04 00:07:49;;;;;;;7.87;5.17;;;;;;;19.31;55.98;101573.63;5072073;28;20171;-62
2023/01/04 00:10:15;;;;;;;6.73;4.83;;;;;;;19.30;55.95;101579.72;5065093;28;20207;-62
2023/01/04 00:12:40;;;;;;;7.70;4.80;;;;;;;19.28;56.17;101585.81;5072276;28;20179;-62
2023/01/04 00:15:06;;;;;;;12.00;4.90;;;;;;;19.28;56.07;101579.25;5081515;28;20174;-61
2023/01/04 00:17:32;;;;;;;6.83;5.03;;;;;;;19.29;55.94;101576.03;5072368;28;20179;-62
2023/01/04 00:19:58;;;;;;;9.37;5.17;;;;;;;19.29;55.94;101581.75;5072592;28;20881;-62
2023/01/04 00:22:23;;;;;;;8.07;4.40;;;;;;;19.29;56.09;101578.03;5111813;28;20469;-62
2023/01/04 00:24:48;;;;;;;9.03;5.87;;;;;;;19.26;56.18;101575.91;5089930;28;20183;-62
2023/01/04 00:27:14;;;;;;;7.87;4.70;;;;;;;19.26;56.10;101565.28;5072113;28;20183;-62
2023/01/04 00:29:39;;;;;;;7.40;4.97;;;;;;;19.23;56.11;101571.72;5090149;28;20202;-62
2023/01/04 00:32:05;;;;;;;8.53;5.73;;;;;;;19.25;56.02;101571.34;5082605;28;20186;-62
2023/01/04 00:34:30;;;;;;;9.80;4.30;;;;;;;19.28;55.97;101562.91;5092188;28;20155;-62
2023/01/04 00:36:55;;;;;;;5.73;4.03;;;;;;;19.26;56.18;101571.00;5078802;28;20630;-62
2023/01/04 00:39:21;;;;;;;11.57;5.30;;;;;;;19.23;56.15;101568.88;5071712;28;20630;-62
2023/01/04 00:41:51;;;;;;;7.80;5.13;;;;;;;19.26;56.34;101568.13;5071552;28;20877;-62
2023/01/04 00:44:16;;;;;;;7.20;5.20;;;;;;;19.28;56.14;101564.94;5057238;28;20525;-62
2023/01/04 00:46:42;;;;;;;8.23;5.23;;;;;;;19.29;56.04;101573.16;5091859;28;20504;-62
2023/01/04 00:49:09;;;;;;;8.27;4.80;;;;;;;19.25;56.05;101579.94;5068432;28;20910;-62
2023/01/04 00:51:35;;;;;;;10.37;5.57;;;;;;;19.24;56.04;101578.28;5053881;28;20159;-62
2023/01/04 00:54:01;;;;;;;9.63;5.93;;;;;;;19.26;56.00;101571.00;5074340;28;20904;-62
2023/01/04 00:56:29;;;;;;;9.63;5.30;;;;;;;19.27;56.08;101566.13;5071210;28;20416;-62
2023/01/04 00:58:55;;;;;;;8.00;5.63;;;;;;;19.26;55.87;101571.00;5078936;28;20534;-62
2023/01/04 01:01:21;;;;;;;8.20;4.70;;;;;;;19.28;55.97;101568.63;5102302;28;20419;-62
2023/01/04 01:03:46;;;;;;;8.53;4.50;;;;;;;19.21;56.19;101579.78;5094960;28;20804;-62
2023/01/04 01:06:12;;;;;;;8.83;4.97;;;;;;;19.24;56.13;101573.41;5073392;28;20185;-62
2023/01/04 01:08:38;;;;;;;8.27;4.60;;;;;;;19.21;56.01;101579.78;5071743;28;20187;-62
2023/01/04 01:11:05;;;;;;;9.57;4.50;;;;;;;19.20;56.20;101589.56;5074075;28;20646;-62
2023/01/04 01:13:30;;;;;;;7.07;4.40;;;;;;;19.21;56.09;101594.09;5071401;28;20699;-62
2023/01/04 01:15:55;;;;;;;7.37;4.70;;;;;;;19.23;55.99;101596.66;5074488;28;20436;-62
2023/01/04 01:18:21;;;;;;;7.20;4.40;;;;;;;19.20;56.17;101592.44;5072162;28;20232;-62
2023/01/04 01:20:46;;;;;;;6.10;4.40;;;;;;;19.20;56.09;101595.31;5090153;28;20181;-62
2023/01/04 01:23:12;;;;;;;8.07;4.87;;;;;;;19.19;56.38;101595.66;5090454;28;20170;-62
2023/01/04 01:25:38;;;;;;;7.87;4.47;;;;;;;19.19;56.37;101593.63;5082399;28;20183;-62
2023/01/04 01:28:03;;;;;;;8.83;5.20;;;;;;;19.21;56.06;101594.09;5075053;28;20430;-62
2023/01/04 01:30:29;;;;;;;6.57;4.07;;;;;;;19.19;56.17;101596.50;5088345;28;20178;-62
2023/01/04 01:32:54;;;;;;;5.70;4.07;;;;;;;19.19;56.10;101598.50;5070926;28;20186;-62
2023/01/04 01:35:20;;;;;;;6.60;4.37;;;;;;;19.21;56.25;101601.88;5071343;28;20159;-62
2023/01/04 01:37:45;;;;;;;6.20;3.70;;;;;;;19.18;56.13;101603.41;5081396;28;20189;-62
2023/01/04 01:40:11;;;;;;;6.90;4.70;;;;;;;19.16;56.23;101614.38;5090989;28;20161;-62
2023/01/04 01:42:36;;;;;;;6.77;4.00;;;;;;;19.21;56.18;101611.28;5090901;28;20226;-62
2023/01/04 01:45:10;;;;;;;6.23;3.90;;;;;;;19.19;56.08;101610.81;5088090;28;20174;-61
2023/01/04 01:47:44;;;;;;;5.77;4.00;;;;;;;19.16;56.26;101611.50;5053085;28;20205;-62
2023/01/04 01:50:37;;;;;;;8.13;4.60;;;;;;;19.17;56.24;101607.44;5052338;28;20529;-62
2023/01/04 01:53:02;;;;;;;7.03;3.93;;;;;;;19.15;56.28;101603.25;5070997;28;20424;-62
2023/01/04 01:55:28;;;;;;;5.80;3.90;;;;;;;19.15;56.15;101609.84;5053027;28;20413;-62
2023/01/04 01:57:53;;;;;;;6.00;4.17;;;;;;;19.16;56.01;101608.66;5076219;28;20641;-62
2023/01/04 02:00:37;;;;;;;7.80;4.33;;;;;;;19.18;56.21;101608.28;5072983;28;20178;-62
2023/01/04 02:03:12;;;;;;;6.70;4.30;;;;;;;19.17;56.06;101598.03;5083597;28;20182;-62
2023/01/04 02:05:38;;;;;;;7.07;4.10;;;;;;;19.18;55.90;101591.13;5065152;28;20476;-62
2023/01/04 02:08:04;;;;;;;6.60;3.93;;;;;;;19.18;55.97;101597.69;5104281;28;20454;-62
2023/01/04 02:10:30;;;;;;;8.70;4.67;;;;;;;19.14;56.24;101581.56;5100682;28;20653;-62
2023/01/04 02:12:55;;;;;;;6.53;3.77;;;;;;;19.17;56.35;101573.09;5053373;28;20190;-62
2023/01/04 02:15:21;;;;;;;7.33;4.17;;;;;;;19.17;56.11;101581.69;5052727;28;20401;-62
2023/01/04 02:17:55;;;;;;;5.37;3.90;;;;;;;19.17;56.15;101569.41;5035699;28;20213;-62
2023/01/04 02:20:33;;;;;;;5.40;3.67;;;;;;;19.15;56.04;101564.03;5073244;28;20228;-63
2023/01/04 02:23:24;;;;;;;5.07;3.57;;;;;;;19.15;56.14;101572.63;5110401;28;20522;-62
2023/01/04 02:26:04;;;;;;;6.70;4.00;;;;;;;19.17;56.09;101573.09;5076852;28;20406;-62
2023/01/04 02:28:50;;;;;;;6.40;3.80;;;;;;;19.18;55.91;101568.22;5083887;28;20451;-62
2023/01/04 02:31:33;;;;;;;6.73;4.13;;;;;;;19.15;56.17;101558.31;5075948;28;20428;-62
2023/01/04 02:34:17;;;;;;;5.90;3.60;;;;;;;19.17;55.99;101561.63;5092120;28;20415;-62
2023/01/04 02:36:51;;;;;;;6.43;3.60;;;;;;;19.14;56.04;101562.38;5076579;28;20428;-62
2023/01/04 02:39:23;;;;;;;5.70;3.90;;;;;;;19.17;56.11;101561.63;5055609;28;20410;-62
2023/01/04 02:41:54;;;;;;;6.40;4.40;;;;;;;19.16;56.30;101550.56;5055249;28;20472;-62
2023/01/04 02:47:16;;;;;;;5.57;3.60;;;;;;;19.12;56.65;101550.41;5059868;28;20527;-62
2023/01/04 02:52:25;;;;;;;6.57;3.77;;;;;;;19.13;55.84;101554.97;5072773;28;20554;-62
2023/01/04 02:54:52;;;;;;;7.00;4.47;;;;;;;19.13;56.12;101557.00;5076295;28;20425;-62
2023/01/04 02:57:23;;;;;;;7.60;3.53;;;;;;;19.14;56.08;101553.78;5073642;28;20225;-62
2023/01/04 03:06:14;;;;;;;5.30;3.63;;;;;;;19.12;56.07;101552.47;5071940;28;20967;-62
2023/01/04 03:06:23;;;;;;;5.60;3.60;;;;;;;19.14;56.24;101552.94;5066381;28;20809;-62
2023/01/04 03:09:01;;;;;;;6.27;3.90;;;;;;;19.14;56.27;101548.06;5073744;28;20846;-62
2023/01/04 03:14:21;;;;;;;6.30;4.20;;;;;;;19.11;56.21;101528.72;5058511;28;21197;-62
2023/01/04 03:16:46;;;;;;;5.00;3.37;;;;;;;19.11;56.09;101517.25;5060557;28;20510;-62
2023/01/04 03:19:11;;;;;;;5.27;3.80;;;;;;;19.10;55.90;101517.63;5073654;28;20451;-62
2023/01/04 03:21:39;;;;;;;5.40;3.90;;;;;;;19.08;56.30;101518.00;5055330;28;20170;-62
2023/01/04 03:35:48;;;;;;;6.20;3.30;;;;;;;19.10;56.10;101492.69;5044114;28;20497;-61
2023/01/04 03:49:40;;;;;;;6.87;3.83;;;;;;;19.05;56.29;101483.50;5013969;28;20817;-62
2023/01/04 03:52:06;;;;;;;6.27;3.50;;;;;;;19.03;55.94;101475.28;5039564;28;20430;-62
2023/01/04 03:54:36;;;;;;;4.13;2.93;;;;;;;19.05;56.03;101475.75;4969978;28;20441;-62
2023/01/04 03:57:02;;;;;;;6.20;3.80;;;;;;;19.06;56.00;101476.59;4970909;28;20167;-62
2023/01/04 03:59:27;;;;;;;5.73;3.63;;;;;;;19.06;56.14;101468.84;5039842;28;20483;-62
2023/01/04 04:01:52;;;;;;;6.40;3.57;;;;;;;19.06;56.12;101462.28;4971082;28;20183;-62
2023/01/04 04:09:46;;;;;;;5.93;3.20;;;;;;;19.05;56.27;101458.59;4969851;28;20464;-62
2023/01/04 04:12:11;;;;;;;4.70;3.30;;;;;;;19.06;56.09;101454.53;4971761;28;20917;-62
2023/01/04 04:14:36;;;;;;;4.60;2.80;;;;;;;19.05;56.13;101443.44;4972508;28;20181;-62
2023/01/04 04:17:02;;;;;;;4.67;3.30;;;;;;;19.03;56.01;101446.66;5035348;28;20185;-62
2023/01/04 04:19:27;;;;;;;6.00;3.67;;;;;;;19.04;56.16;101441.75;4989562;28;20150;-62
2023/01/04 04:21:53;;;;;;;4.37;3.40;;;;;;;19.03;55.85;101435.22;4979202;28;20186;-62
2023/01/04 04:24:23;;;;;;;4.70;3.30;;;;;;;19.03;56.01;101423.78;4970841;28;20532;-62
2023/01/04 04:26:53;;;;;;;7.03;3.47;;;;;;;19.04;56.20;101428.31;4985288;28;20517;-62
2023/01/04 04:29:18;;;;;;;5.43;3.20;;;;;;;19.04;56.06;101419.72;4990490;28;20457;-62
2023/01/04 04:31:44;;;;;;;6.23;3.30;;;;;;;19.02;55.92;101418.41;4990027;28;20447;-62
2023/01/04 04:34:09;;;;;;;5.00;3.37;;;;;;;19.04;56.05;101428.31;4975284;28;20175;-62
2023/01/04 04:36:35;;;;;;;6.67;3.00;;;;;;;19.06;55.95;101425.09;4970434;28;20613;-62
2023/01/04 04:39:00;;;;;;;4.90;2.87;;;;;;;19.05;56.19;101427.09;4972508;28;20541;-62
2023/01/04 04:41:38;;;;;;;4.50;3.07;;;;;;;19.05;55.97;101414.81;4975641;28;20174;-62
2023/01/04 04:44:08;;;;;;;5.17;3.67;;;;;;;19.04;55.88;101416.00;5071766;28;20175;-62
2023/01/04 04:46:33;;;;;;;4.83;3.30;;;;;;;19.07;56.13;101418.16;5074596;28;20432;-62
2023/01/04 04:48:59;;;;;;;5.30;3.07;;;;;;;19.05;56.07;101415.66;5071576;28;21082;-61
2023/01/04 04:51:24;;;;;;;6.10;3.90;;;;;;;19.05;55.91;101418.50;5086828;28;20174;-62
2023/01/04 04:53:49;;;;;;;5.47;3.30;;;;;;;19.03;55.89;101418.06;5090558;28;20966;-62
2023/01/04 04:56:15;;;;;;;4.03;2.97;;;;;;;19.04;56.02;101407.41;5090518;28;20606;-62
2023/01/04 04:58:40;;;;;;;4.50;2.90;;;;;;;19.03;55.97;101412.31;5083611;28;20170;-62
2023/01/04 05:01:06;;;;;;;4.80;3.10;;;;;;;19.04;55.92;101414.00;5091852;28;20159;-62
2023/01/04 05:03:31;;;;;;;4.07;2.83;;;;;;;19.02;56.05;101412.69;5081964;28;20186;-62
2023/01/04 05:05:57;;;;;;;4.53;2.87;;;;;;;19.05;56.04;101409.94;5082722;28;20241;-62
2023/01/04 05:08:22;;;;;;;4.43;2.90;;;;;;;19.03;56.10;101406.59;5091018;28;20181;-62
2023/01/04 05:10:48;;;;;;;7.17;3.07;;;;;;;19.04;55.96;101404.56;5087885;28;20213;-62
2023/01/04 05:13:13;;;;;;;4.30;3.13;;;;;;;19.05;56.00;101406.22;5090955;28;20227;-62
2023/01/04 05:15:41;;;;;;;5.47;3.17;;;;;;;19.05;56.11;101407.06;5091700;28;20215;-62
2023/01/04 05:18:11;;;;;;;4.27;2.70;;;;;;;19.04;55.97;101405.41;5076826;28;20185;-62
2023/01/04 05:20:36;;;;;;;3.70;2.57;;;;;;;19.05;55.78;101407.06;5071306;28;20783;-61
2023/01/04 05:23:02;;;;;;;5.00;2.73;;;;;;;19.06;56.07;101408.72;5075534;28;20523;-62
2023/01/04 05:25:27;;;;;;;4.83;2.93;;;;;;;19.04;55.63;101405.41;5091242;28;20162;-62
2023/01/04 05:27:53;;;;;;;4.50;2.80;;;;;;;19.06;56.00;101400.13;5091223;28;20179;-62
2023/01/04 05:33:03;;;;;;;4.20;2.80;;;;;;;19.02;55.75;101407.78;5055819;28;20182;-62
2023/01/04 05:35:28;;;;;;;3.60;2.60;;;;;;;19.02;55.90;101398.38;5073393;28;20456;-62
2023/01/04 05:37:54;;;;;;;4.07;2.50;;;;;;;19.06;55.81;101397.28;5071111;28;20601;-62
2023/01/04 05:40:19;;;;;;;5.03;2.90;;;;;;;19.04;55.98;101402.53;5071359;28;20171;-62
2023/01/04 05:42:44;;;;;;;3.70;2.77;;;;;;;19.04;55.80;101408.25;5073033;28;20230;-62
2023/01/04 05:45:10;;;;;;;4.10;2.60;;;;;;;19.03;55.97;101403.75;5070829;28;20160;-62
2023/01/04 05:47:35;;;;;;;4.23;2.47;;;;;;;19.04;56.10;101402.53;5073152;28;20532;-62
2023/01/04 05:50:01;;;;;;;3.60;2.33;;;;;;;19.06;55.72;101405.88;5070153;28;20812;-62
2023/01/04 05:52:26;;;;;;;4.10;2.50;;;;;;;19.05;55.99;101409.94;5071382;28;20182;-62
2023/01/04 05:54:52;;;;;;;4.47;2.67;;;;;;;19.05;56.09;101404.22;5072440;28;20179;-62
2023/01/04 05:57:17;;;;;;;4.30;3.00;;;;;;;19.08;55.83;101406.38;5071017;28;20163;-62
2023/01/04 05:59:43;;;;;;;5.57;3.00;;;;;;;19.03;55.89;101395.16;5085791;28;20173;-62
2023/01/04 06:02:19;;;;;;;4.90;3.23;;;;;;;19.05;55.85;101406.22;5075811;28;20183;-62
2023/01/04 06:04:45;;;;;;;4.50;2.70;;;;;;;19.04;55.87;101408.25;5071978;28;20666;-62
2023/01/04 06:07:10;;;;;;;3.57;2.50;;;;;;;19.06;55.89;101405.88;5076898;28;20482;-62
2023/01/04 06:09:36;;;;;;;4.00;2.67;;;;;;;19.06;55.83;101402.19;5086013;28;20209;-62
2023/01/04 06:12:01;;;;;;;4.00;2.70;;;;;;;19.05;55.91;101407.06;5095109;28;20212;-62
2023/01/04 06:14:27;;;;;;;4.50;2.90;;;;;;;19.04;56.02;101411.13;5059473;28;20175;-61
2023/01/04 06:16:52;;;;;;;3.23;2.47;;;;;;;19.06;55.77;101410.78;5074766;28;20182;-61
2023/01/04 06:19:18;;;;;;;5.33;2.80;;;;;;;19.05;55.87;101398.47;5088336;28;20248;-62
2023/01/04 06:21:43;;;;;;;3.30;2.17;;;;;;;19.05;55.73;101403.34;5114770;28;20176;-62
2023/01/04 06:24:10;;;;;;;5.60;2.60;;;;;;;19.04;55.83;101382.50;5113268;28;20527;-62
2023/01/04 06:26:35;;;;;;;4.33;2.73;;;;;;;19.06;55.86;101391.56;5088697;28;20217;-62
2023/01/04 06:29:00;;;;;;;2.97;2.00;;;;;;;19.07;55.52;101384.63;5094249;28;20455;-62
2023/01/04 06:31:26;;;;;;;5.17;2.67;;;;;;;19.05;55.75;101384.16;5085922;28;20202;-62
2023/01/04 06:33:51;;;;;;;3.80;2.37;;;;;;;19.06;55.73;101387.88;5083839;28;20174;-61
2023/01/04 06:36:17;;;;;;;4.57;3.20;;;;;;;19.06;55.82;101385.00;5093164;28;20550;-62
2023/01/04 06:38:42;;;;;;;4.20;2.37;;;;;;;19.07;55.69;101378.91;5076310;28;20633;-62
2023/01/04 06:41:07;;;;;;;3.70;2.43;;;;;;;19.08;55.81;101397.78;5074011;28;20179;-62
2023/01/04 06:43:33;;;;;;;4.20;2.60;;;;;;;19.06;55.71;101405.06;5081211;28;20230;-62
2023/01/04 06:46:00;;;;;;;4.03;2.63;;;;;;;19.04;55.59;101396.81;5092638;28;20193;-62
2023/01/04 06:48:26;;;;;;;3.90;2.53;;;;;;;19.09;55.82;101390.00;5090816;28;20688;-62
2023/01/04 06:50:51;;;;;;;3.33;2.30;;;;;;;19.08;55.22;101394.91;5074062;28;20436;-62
2023/01/04 06:53:17;;;;;;;3.40;2.63;;;;;;;19.09;55.73;101396.56;5076121;28;20406;-62
2023/01/04 06:55:45;;;;;;;4.03;2.60;;;;;;;19.06;55.73;101400.13;5069850;28;20186;-62
2023/01/04 06:58:10;;;;;;;4.03;2.70;;;;;;;19.06;55.74;101394.41;5078465;28;20179;-62
2023/01/04 07:00:36;;;;;;;3.57;2.57;;;;;;;19.09;55.83;101398.59;5090065;28;20843;-62
2023/01/04 07:03:01;;;;;;;4.20;2.70;;;;;;;19.07;55.74;101401.81;5072680;28;20188;-62
2023/01/04 07:05:27;;;;;;;3.47;2.17;;;;;;;19.09;55.85;101402.31;5072170;28;20205;-62
2023/01/04 07:07:52;;;;;;;4.20;2.60;;;;;;;19.09;55.65;101395.72;5074961;28;20190;-62
2023/01/04 07:10:17;;;;;;;3.20;2.40;;;;;;;19.08;55.52;101394.06;5072511;28;20183;-62
2023/01/04 07:12:43;;;;;;;3.30;2.43;;;;;;;19.09;56.08;101393.72;5074949;28;20661;-62
2023/01/04 07:15:09;;;;;;;3.60;2.30;;;;;;;19.07;55.65;101401.81;5076769;28;20175;-62
2023/01/04 07:17:34;;;;;;;7.70;2.17;;;;;;;19.07;55.63;101396.09;5091881;28;20163;-62
2023/01/04 07:20:00;;;;;;;3.83;2.37;;;;;;;19.10;55.81;101405.97;5078126;28;20206;-62
2023/01/04 07:22:25;;;;;;;3.70;2.40;;;;;;;19.08;55.68;101397.78;5071575;28;20164;-62
2023/01/04 07:24:50;;;;;;;4.20;2.60;;;;;;;19.08;55.67;101392.06;5074286;28;20201;-62
2023/01/04 07:27:16;;;;;;;3.43;2.40;;;;;;;19.04;55.71;101388.22;5071870;28;20240;-62
2023/01/04 07:29:43;;;;;;;3.50;2.20;;;;;;;19.09;55.64;101392.88;5090183;28;20198;-62
2023/01/04 07:32:09;;;;;;;3.37;2.27;;;;;;;19.08;55.56;101382.63;5088700;28;20965;-62
2023/01/04 07:34:34;;;;;;;3.53;2.40;;;;;;;19.08;55.58;101385.47;5091925;28;20420;-62
2023/01/04 07:36:59;;;;;;;4.10;2.40;;;;;;;19.10;55.56;101383.94;5088635;28;20803;-62
2023/01/04 07:39:25;;;;;;;4.03;2.10;;;;;;;19.08;55.73;101377.75;5091810;28;20155;-62
2023/01/04 07:41:50;;;;;;;4.00;2.57;;;;;;;19.08;55.53;101376.91;5052044;28;1146863;-62
2023/01/04 07:44:20;;;;;;;3.67;2.50;;;;;;;19.10;55.51;101374.50;5077201;28;20222;-62
2023/01/04 07:46:46;;;;;;;3.87;2.63;;;;;;;19.11;55.51;101374.16;5072990;28;20155;-62
2023/01/04 07:49:12;;;;;;;3.00;1.90;;;;;;;19.09;55.45;101381.41;5075575;28;20464;-62
2023/01/04 07:51:38;;;;;;;3.70;2.37;;;;;;;19.11;55.51;101367.59;5072617;28;20198;-62
2023/01/04 07:54:03;;;;;;;3.07;2.20;;;;;;;19.10;55.48;101361.03;5054637;28;20417;-62
2023/01/04 07:56:29;;;;;;;3.50;2.40;;;;;;;19.10;55.44;101360.19;5072573;28;20171;-62
2023/01/04 07:58:56;;;;;;;3.50;2.30;;;;;;;19.09;55.73;101353.66;5082218;28;20186;-62
2023/01/04 08:01:22;;;;;;;3.97;2.33;;;;;;;19.10;55.45;101355.31;5092640;28;20170;-61
2023/01/04 08:03:47;;;;;;;4.07;2.13;;;;;;;19.09;55.50;101347.06;5072878;28;20914;-62
2023/01/04 08:06:14;;;;;;;2.40;1.80;;;;;;;19.09;55.52;101342.19;5090242;28;20185;-62
2023/01/04 08:08:39;;;;;;;3.63;2.30;;;;;;;19.09;55.41;101335.63;5076386;28;20199;-62
2023/01/04 08:11:06;;;;;;;3.60;2.40;;;;;;;19.09;55.51;101339.34;5072251;28;20463;-62
2023/01/04 08:13:32;;;;;;;3.90;2.20;;;;;;;19.10;55.50;101326.69;5074944;28;20244;-62
2023/01/04 08:15:57;;;;;;;3.10;2.20;;;;;;;19.11;55.41;101327.53;5053927;28;20413;-62
2023/01/04 08:18:22;;;;;;;3.33;2.20;;;;;;;19.10;55.33;101318.09;5084661;28;20177;-62
2023/01/04 08:20:48;;;;;;;3.23;2.00;;;;;;;19.09;55.33;101319.28;5074088;28;20187;-62
2023/01/04 08:23:13;;;;;;;3.77;2.00;;;;;;;19.08;55.43;101314.78;5072443;28;20159;-62
2023/01/04 08:25:39;;;;;;;3.77;2.23;;;;;;;19.07;55.60;101315.94;5094921;28;20178;-62
2023/01/04 08:28:04;;;;;;;3.83;1.93;;;;;;;19.10;55.57;101315.22;5099098;28;20629;-62
2023/01/04 08:30:29;;;;;;;2.87;2.10;;;;;;;19.11;55.26;101321.81;5089915;28;20210;-62
2023/01/04 08:32:56;;;;;;;4.33;2.23;;;;;;;19.10;55.45;101320.97;5072548;28;20194;-62
2023/01/04 08:35:21;;;;;;;2.70;2.03;;;;;;;19.12;55.44;101324.28;5072014;28;20202;-62
2023/01/04 08:37:46;;;;;;;3.77;2.33;;;;;;;19.11;55.50;101321.81;5076138;28;20972;-62
2023/01/04 08:40:12;;;;;;;3.27;2.03;;;;;;;19.12;55.27;101327.16;5092178;28;20199;-62
2023/01/04 08:42:37;;;;;;;3.30;2.37;;;;;;;19.11;55.53;101330.41;5089957;28;20272;-62
2023/01/04 08:45:03;;;;;;;3.60;2.17;;;;;;;19.10;55.42;101320.97;5091827;28;20179;-61
2023/01/04 08:47:29;;;;;;;3.10;1.90;;;;;;;19.11;55.48;101322.63;5073134;28;20174;-62
2023/01/04 08:49:54;;;;;;;3.20;1.83;;;;;;;19.09;55.34;101327.88;5078683;28;20467;-62
2023/01/04 08:52:20;;;;;;;3.13;2.03;;;;;;;19.09;55.52;101324.16;5071637;28;20189;-62
2023/01/04 08:54:46;;;;;;;3.70;2.00;;;;;;;19.11;55.77;101334.06;5100278;28;20232;-62
2023/01/04 08:57:11;;;;;;;3.30;2.17;;;;;;;19.11;55.36;101325.47;5071119;28;20179;-62
2023/01/04 08:59:37;;;;;;;3.30;2.20;;;;;;;19.12;55.32;101334.91;5088933;28;20170;-61
2023/01/04 09:02:02;;;;;;;3.20;2.00;;;;;;;19.13;55.54;101328.00;5076726;28;20179;-62
2023/01/04 09:04:28;;;;;;;3.27;1.90;;;;;;;19.13;55.37;101331.69;5070671;28;20643;-62
2023/01/04 09:06:53;;;;;;;3.30;1.90;;;;;;;19.13;55.46;101331.69;5070498;28;20175;-61
2023/01/04 09:09:19;;;;;;;3.63;2.10;;;;;;;19.13;55.37;101328.00;5070306;28;20199;-62
2023/01/04 09:11:44;;;;;;;3.27;2.00;;;;;;;19.09;55.42;101327.88;5073388;28;20657;-62
2023/01/04 09:14:10;;;;;;;3.00;2.00;;;;;;;19.08;55.46;101328.22;5071293;28;20184;-62
2023/01/04 09:16:36;;;;;;;3.30;2.10;;;;;;;19.10;55.47;101320.09;5073598;28;20190;-62
2023/01/04 09:19:01;;;;;;;3.63;1.90;;;;;;;19.10;55.41;101309.50;5071357;28;20190;-62
2023/01/04 09:21:27;;;;;;;3.00;1.77;;;;;;;19.11;55.42;101314.03;5073299;28;20904;-62
2023/01/04 09:23:52;;;;;;;3.43;1.73;;;;;;;19.09;55.50;101301.28;5073005;28;20235;-62
2023/01/04 09:26:22;;;;;;;3.80;1.90;;;;;;;19.08;55.35;101311.91;5076514;28;20190;-62
2023/01/04 09:28:48;;;;;;;3.40;1.90;;;;;;;19.11;55.21;101308.31;5081908;28;20198;-62
2023/01/04 09:31:15;;;;;;;5.83;2.07;;;;;;;19.10;55.23;101308.66;5091381;28;20418;-62
2023/01/04 09:33:42;;;;;;;3.10;2.07;;;;;;;19.09;55.22;101307.84;5090612;28;20439;-62
2023/01/04 09:36:07;;;;;;;2.77;1.87;;;;;;;19.11;55.36;101316.91;5073125;28;20567;-62
2023/01/04 09:38:33;;;;;;;2.70;1.87;;;;;;;19.08;55.33;101311.91;5070992;28;20799;-62
2023/01/04 09:41:19;;;;;;;2.90;1.70;;;;;;;19.12;55.40;101320.59;5079906;28;20190;-62
2023/01/04 09:43:49;;;;;;;3.03;2.00;;;;;;;19.09;55.37;101307.84;5061510;28;20217;-62
2023/01/04 09:46:38;;;;;;;3.37;1.80;;;;;;;19.12;55.37;101312.00;5070802;28;21195;-62
2023/01/04 09:49:15;;;;;;;3.93;1.80;;;;;;;19.10;55.17;101308.66;5055217;28;20461;-62
2023/01/04 09:51:42;;;;;;;4.33;1.70;;;;;;;19.10;55.39;101305.81;5053661;28;20402;-62
2023/01/04 09:54:15;;;;;;;3.87;2.10;;;;;;;19.09;55.55;101310.72;5053043;28;20433;-62
2023/01/04 09:56:40;;;;;;;3.63;2.07;;;;;;;19.09;55.19;101301.28;5053479;28;20447;-62
2023/01/04 09:59:09;;;;;;;2.90;1.73;;;;;;;19.09;55.57;101290.69;5043831;28;20433;-62
2023/01/04 10:01:53;;;;;;;2.90;1.80;;;;;;;19.12;55.56;101294.84;5052581;28;20681;-62
2023/01/04 10:04:42;;;;;;;2.50;1.60;;;;;;;19.09;55.44;101296.41;5072715;28;20528;-62
2023/01/04 10:07:32;;;;;;;3.73;2.10;;;;;;;19.08;55.39;101302.47;5070828;28;20405;-62
2023/01/04 10:09:58;;;;;;;3.83;2.30;;;;;;;19.05;55.54;101292.59;5060522;28;20982;-62
2023/01/04 10:12:36;;;;;;;3.00;1.80;;;;;;;19.10;55.66;101286.59;5070570;28;20405;-62
2023/01/04 10:15:32;;;;;;;2.93;1.87;;;;;;;19.06;55.50;101282.78;5070393;28;20197;-62
2023/01/04 10:18:10;;;;;;;3.10;1.80;;;;;;;19.07;55.35;101281.59;5067543;28;20927;-62
2023/01/04 10:21:00;;;;;;;3.30;2.00;;;;;;;19.08;55.51;101276.72;5091317;28;20415;-61
2023/01/04 10:23:44;;;;;;;3.20;1.90;;;;;;;19.11;55.40;101276.81;5105605;28;20515;-62
2023/01/04 10:26:11;;;;;;;3.77;1.87;;;;;;;19.09;55.18;101282.09;5094323;28;20395;-62
2023/01/04 10:29:01;;;;;;;3.30;1.90;;;;;;;19.09;55.33;101269.78;5082640;28;20880;-62
2023/01/04 10:31:30;;;;;;;4.10;2.17;;;;;;;19.09;55.24;101269.78;5082477;28;20432;-62
2023/01/04 10:34:21;;;;;;;3.10;1.70;;;;;;;19.09;54.96;101270.63;5071766;28;21017;-62
2023/01/04 10:36:46;;;;;;;2.73;1.67;;;;;;;19.05;55.55;101261.09;5071906;28;20464;-62
2023/01/04 10:39:14;;;;;;;2.93;1.83;;;;;;;19.07;55.41;101250.09;5090383;28;20439;-62
2023/01/04 10:41:42;;;;;;;3.70;1.80;;;;;;;19.09;55.43;101262.06;5052091;28;20641;-62
2023/01/04 10:44:31;;;;;;;3.33;1.80;;;;;;;19.11;55.43;101247.38;5056043;28;20760;-62
2023/01/04 10:46:56;;;;;;;3.00;1.90;;;;;;;19.07;55.51;101246.44;5090568;28;20424;-62
2023/01/04 10:49:28;;;;;;;3.43;1.53;;;;;;;19.08;55.18;101243.22;5086553;28;20524;-62
2023/01/04 10:52:05;;;;;;;3.70;1.97;;;;;;;19.06;55.40;101245.59;5075510;28;20220;-62
2023/01/04 10:54:36;;;;;;;3.17;2.00;;;;;;;19.11;55.62;101238.78;5093814;28;20416;-62
2023/01/04 10:57:11;;;;;;;2.73;1.53;;;;;;;19.07;55.32;101227.22;5092350;28;20450;-62
2023/01/04 10:59:38;;;;;;;3.53;1.87;;;;;;;19.07;55.24;101240.72;5091529;28;20480;-62
2023/01/04 11:02:10;;;;;;;3.10;1.60;;;;;;;19.08;55.25;101245.22;5093866;28;20794;-62
2023/01/04 11:04:41;;;;;;;2.77;1.80;;;;;;;19.07;55.37;101237.84;5076030;28;20441;-62
2023/01/04 11:07:20;;;;;;;2.93;1.77;;;;;;;19.06;55.38;101231.28;5072306;28;20421;-62
2023/01/04 11:10:06;;;;;;;3.20;1.67;;;;;;;19.07;55.02;101235.81;5075854;28;20906;-62
2023/01/04 11:12:32;;;;;;;2.80;1.63;;;;;;;19.08;55.23;101226.03;5072725;28;20524;-62
2023/01/04 11:14:57;;;;;;;2.80;1.57;;;;;;;19.07;55.53;101215.75;5073561;28;20844;-62
2023/01/04 11:17:23;;;;;;;3.50;2.20;;;;;;;19.12;55.18;101214.69;5073122;28;20228;-62
2023/01/04 11:19:48;;;;;;;2.77;1.77;;;;;;;19.12;54.96;101215.50;5076160;28;20658;-62
2023/01/04 11:22:24;;;;;;;3.07;1.77;;;;;;;19.07;55.23;101212.91;5073389;28;20160;-61
2023/01/04 11:24:52;;;;;;;2.70;1.93;;;;;;;19.15;55.34;101214.78;5090548;28;20166;-62
2023/01/04 11:27:20;;;;;;;2.47;1.60;;;;;;;19.09;55.15;101209.69;5071770;28;20999;-62
2023/01/04 11:29:56;;;;;;;3.00;1.80;;;;;;;19.10;55.26;101223.63;5092863;28;20691;-62
2023/01/04 11:32:45;;;;;;;3.60;1.97;;;;;;;19.08;55.30;101220.31;5073547;28;20451;-62
2023/01/04 11:35:11;;;;;;;2.07;1.37;;;;;;;19.10;55.13;101219.94;5055824;28;20440;-62
2023/01/04 11:37:38;;;;;;;3.77;1.73;;;;;;;19.11;55.39;101213.03;5072571;28;20402;-62
2023/01/04 11:40:11;;;;;;;2.40;1.27;;;;;;;19.13;55.30;101220.06;5056234;28;20282;-62
2023/01/04 11:42:37;;;;;;;3.03;1.40;;;;;;;19.08;55.15;101220.31;5072079;28;20461;-62
2023/01/04 11:45:03;;;;;;;2.63;1.63;;;;;;;19.11;55.36;101215.91;5072142;28;20977;-62
2023/01/04 11:47:28;;;;;;;2.77;1.60;;;;;;;19.08;55.33;101228.91;5074277;28;20190;-62
2023/01/04 11:49:54;;;;;;;2.90;1.67;;;;;;;19.06;55.35;101216.97;5072644;28;20708;-62
2023/01/04 11:52:33;;;;;;;2.30;1.40;;;;;;;19.09;55.35;101216.25;5072838;28;20266;-62
2023/01/04 11:55:23;;;;;;;2.73;1.60;;;;;;;19.10;55.20;101223.63;5073031;28;20178;-62
2023/01/04 11:58:08;;;;;;;3.60;1.33;;;;;;;19.12;55.13;101218.38;5059249;28;20448;-62
2023/01/04 12:00:34;;;;;;;3.20;1.40;;;;;;;19.09;55.20;101210.53;5069161;28;20562;-62
2023/01/04 12:03:12;;;;;;;2.73;1.43;;;;;;;18.63;49.99;101221.72;5088957;28;20421;-61
2023/01/04 12:05:38;;;;;;;3.07;1.40;;;;;;;18.06;49.29;101218.94;5053202;28;20287;-61
2023/01/04 12:08:03;;;;;;;5.30;1.40;;;;;;;17.85;49.05;101223.09;5069567;28;20406;-61
2023/01/04 12:10:29;;;;;;;2.77;1.30;;;;;;;17.88;49.76;101217.50;5055847;28;20280;-61
2023/01/04 12:12:55;;;;;;;2.80;1.63;;;;;;;17.50;48.30;101216.91;5069293;28;20228;-61